createdAt,value
2023-03-02T00:01:26.534Z,2.08
2023-03-02T00:03:54.247Z,2.03
2023-03-02T00:06:21.289Z,1.90
2023-03-02T00:08:48.287Z,2.47
2023-03-02T00:11:15.689Z,1.55
2023-03-02T00:13:43.722Z,3.05
2023-03-02T00:16:10.936Z,3.63
2023-03-02T00:18:37.882Z,4.78
2023-03-02T00:21:04.884Z,3.30
2023-03-02T00:23:31.766Z,1.63
2023-03-02T00:25:58.715Z,4.13
2023-03-02T00:28:25.829Z,2.08
2023-03-02T00:30:52.729Z,2.00
2023-03-02T00:33:20.956Z,2.50
2023-03-02T00:35:47.901Z,1.60
2023-03-02T00:38:14.819Z,2.50
2023-03-02T00:40:49.459Z,2.22
2023-03-02T00:43:17.034Z,2.15
2023-03-02T00:45:44.453Z,1.40
2023-03-02T00:48:11.393Z,2.30
2023-03-02T00:50:41.088Z,2.70
2023-03-02T00:53:09.356Z,4.00
2023-03-02T00:55:37.639Z,2.90
2023-03-02T00:58:05.241Z,2.20
2023-03-02T01:00:34.281Z,2.17
2023-03-02T01:03:04.698Z,2.78
2023-03-02T01:05:35.625Z,2.17
2023-03-02T01:08:02.566Z,2.15
2023-03-02T01:10:32.072Z,2.25
2023-03-02T01:12:59.027Z,2.15
2023-03-02T01:15:26.380Z,2.35
2023-03-02T01:17:54.132Z,3.33
2023-03-02T01:20:21.153Z,3.42
2023-03-02T01:22:48.504Z,1.60
2023-03-02T01:25:15.730Z,2.90
2023-03-02T01:27:42.871Z,2.88
2023-03-02T01:30:10.502Z,1.70
2023-03-02T01:32:37.538Z,3.10
2023-03-02T01:35:05.025Z,2.15
2023-03-02T01:37:32.024Z,1.98
2023-03-02T01:39:58.917Z,2.20
2023-03-02T01:42:25.907Z,2.35
2023-03-02T01:44:57.140Z,1.98
2023-03-02T01:47:39.103Z,3.65
2023-03-02T01:50:19.558Z,1.67
2023-03-02T01:52:47.490Z,2.05
2023-03-02T01:55:20.015Z,4.30
2023-03-02T01:57:51.414Z,2.05
2023-03-02T02:00:25.575Z,4.85
2023-03-02T02:02:54.270Z,1.80
2023-03-02T02:05:25.563Z,3.25
2023-03-02T02:07:52.968Z,2.03
2023-03-02T02:10:20.255Z,2.97
2023-03-02T02:12:47.254Z,2.63
2023-03-02T02:15:14.242Z,3.05
2023-03-02T02:17:42.267Z,3.17
2023-03-02T02:20:34.024Z,2.78
2023-03-02T02:23:18.695Z,3.40
2023-03-02T02:26:01.951Z,3.67
2023-03-02T02:28:39.941Z,2.73
2023-03-02T02:31:36.576Z,3.20
2023-03-02T02:34:16.047Z,2.70
2023-03-02T02:36:47.485Z,1.73
2023-03-02T02:42:00.591Z,3.22
2023-03-02T02:44:28.746Z,5.20
2023-03-02T02:46:55.782Z,4.25
2023-03-02T02:49:28.683Z,4.22
2023-03-02T02:51:55.824Z,5.30
2023-03-02T02:54:23.637Z,9.40
2023-03-02T02:56:52.561Z,11.57
2023-03-02T02:59:29.601Z,8.02
2023-03-02T03:02:00.279Z,7.10
2023-03-02T03:04:30.620Z,9.25
2023-03-02T03:07:00.188Z,7.72
2023-03-02T03:09:28.231Z,12.10
2023-03-02T03:12:01.535Z,8.85
2023-03-02T03:14:36.510Z,6.63
2023-03-02T03:17:11.910Z,8.65
2023-03-02T03:19:44.357Z,9.73
2023-03-02T03:22:14.648Z,6.60
2023-03-02T03:24:43.420Z,6.07
2023-03-02T03:27:12.889Z,8.02
2023-03-02T03:29:43.616Z,7.20
2023-03-02T03:32:13.894Z,7.45
2023-03-02T03:34:41.276Z,9.77
2023-03-02T03:37:42.044Z,6.80
2023-03-02T03:40:10.853Z,6.90
2023-03-02T03:42:41.141Z,10.02
2023-03-02T03:45:09.365Z,10.05
2023-03-02T03:47:37.946Z,9.32
2023-03-02T03:50:06.911Z,7.25
2023-03-02T03:52:34.630Z,8.40
2023-03-02T03:55:13.827Z,11.90
2023-03-02T03:57:42.550Z,9.10
2023-03-02T04:00:15.039Z,11.90
2023-03-02T04:02:46.097Z,10.65
2023-03-02T04:05:14.362Z,8.70
2023-03-02T04:07:41.634Z,14.48
2023-03-02T04:10:10.040Z,12.25
2023-03-02T04:12:40.862Z,8.77
2023-03-02T04:15:13.084Z,16.25
2023-03-02T04:17:40.059Z,8.07
2023-03-02T04:20:08.796Z,10.50
2023-03-02T04:22:37.369Z,8.00
2023-03-02T04:25:05.232Z,10.90
2023-03-02T04:27:32.916Z,9.68
2023-03-02T04:30:00.140Z,12.25
2023-03-02T04:32:27.282Z,11.25
2023-03-02T04:34:55.985Z,12.45
2023-03-02T04:37:23.956Z,9.00
2023-03-02T04:39:52.799Z,8.43
2023-03-02T04:42:20.451Z,9.63
2023-03-02T04:44:48.093Z,5.93
2023-03-02T04:47:15.329Z,10.45
2023-03-02T04:49:42.445Z,6.43
2023-03-02T04:52:09.642Z,10.23
2023-03-02T04:54:36.780Z,9.57
2023-03-02T04:57:04.056Z,10.55
2023-03-02T04:59:31.114Z,9.95
2023-03-02T05:02:00.553Z,8.65
2023-03-02T05:04:28.854Z,8.80
2023-03-02T05:06:56.684Z,12.02
2023-03-02T05:09:27.507Z,10.02
2023-03-02T05:11:56.102Z,7.25
2023-03-02T05:14:23.940Z,9.43
2023-03-02T05:16:51.411Z,11.27
2023-03-02T05:19:19.267Z,13.68
2023-03-02T05:21:46.549Z,6.65
2023-03-02T05:24:13.900Z,11.02
2023-03-02T05:26:41.512Z,10.85
2023-03-02T05:29:08.830Z,9.90
2023-03-02T05:31:40.779Z,7.55
2023-03-02T05:34:10.715Z,14.93
2023-03-02T05:36:38.587Z,8.40
2023-03-02T05:39:06.858Z,12.93
2023-03-02T05:41:34.395Z,7.75
2023-03-02T05:44:01.740Z,9.20
2023-03-02T05:46:28.807Z,12.65
2023-03-02T05:48:55.832Z,9.88
2023-03-02T05:51:22.865Z,6.95
2023-03-02T05:53:49.825Z,10.52
2023-03-02T05:56:16.779Z,11.40
2023-03-02T05:58:43.717Z,9.23
2023-03-02T06:01:14.890Z,8.13
2023-03-02T06:03:43.270Z,7.25
2023-03-02T06:06:14.122Z,6.13
2023-03-02T06:08:42.813Z,10.07
2023-03-02T06:11:10.205Z,7.05
2023-03-02T06:13:37.713Z,7.95
2023-03-02T06:16:05.503Z,8.07
2023-03-02T06:18:32.590Z,7.03
2023-03-02T06:21:00.037Z,12.30
2023-03-02T06:23:27.007Z,7.18
2023-03-02T06:25:54.088Z,10.63
2023-03-02T06:28:21.942Z,8.63
2023-03-02T06:30:49.565Z,11.70
2023-03-02T06:33:18.175Z,9.77
2023-03-02T06:35:45.805Z,11.98
2023-03-02T06:38:13.111Z,12.18
2023-03-02T06:40:40.079Z,14.95
2023-03-02T06:43:07.080Z,11.95
2023-03-02T06:45:34.263Z,13.98
2023-03-02T06:48:02.065Z,9.85
2023-03-02T06:50:29.093Z,10.23
2023-03-02T06:52:56.270Z,22.42
2023-03-02T06:55:23.432Z,10.75
2023-03-02T06:57:50.782Z,9.75
2023-03-02T07:00:25.880Z,13.13
2023-03-02T07:02:53.831Z,15.60
2023-03-02T07:05:21.598Z,9.07
2023-03-02T07:07:48.502Z,15.30
2023-03-02T07:10:15.572Z,15.13
2023-03-02T07:12:42.770Z,17.65
2023-03-02T07:15:12.339Z,18.25
2023-03-02T07:17:40.488Z,17.27
2023-03-02T07:20:08.147Z,18.73
2023-03-02T07:22:35.106Z,11.73
2023-03-02T07:25:02.048Z,13.30
2023-03-02T07:27:29.044Z,14.73
2023-03-02T07:29:55.988Z,11.15
2023-03-02T07:32:23.023Z,12.40
2023-03-02T07:34:50.052Z,13.70
2023-03-02T07:37:17.034Z,11.85
2023-03-02T07:39:44.169Z,15.38
2023-03-02T07:42:12.694Z,11.02
2023-03-02T07:44:42.146Z,14.40
2023-03-02T07:47:09.127Z,14.77
2023-03-02T07:49:36.102Z,18.52
2023-03-02T07:52:04.196Z,17.25
2023-03-02T07:54:31.571Z,12.93
2023-03-02T07:56:59.362Z,14.00
2023-03-02T07:59:28.383Z,15.55
2023-03-02T08:01:56.398Z,25.52
2023-03-02T08:04:24.822Z,17.63
2023-03-02T08:06:51.998Z,15.70
2023-03-02T08:09:19.138Z,13.52
2023-03-02T08:11:47.776Z,14.13
2023-03-02T08:14:14.946Z,10.43
2023-03-02T08:16:42.223Z,20.08
2023-03-02T08:19:09.231Z,13.52
2023-03-02T08:21:36.546Z,16.85
2023-03-02T08:24:03.769Z,16.92
2023-03-02T08:26:30.817Z,19.05
2023-03-02T08:28:59.324Z,13.95
2023-03-02T08:31:27.203Z,11.95
2023-03-02T08:33:54.447Z,15.63
2023-03-02T08:36:21.889Z,14.93
2023-03-02T08:38:49.768Z,17.77
2023-03-02T08:41:20.073Z,15.93
2023-03-02T08:43:47.758Z,19.08
2023-03-02T08:46:17.046Z,12.75
2023-03-02T08:48:44.675Z,18.95
2023-03-02T08:51:21.136Z,12.00
2023-03-02T08:53:55.047Z,9.68
2023-03-02T08:56:34.395Z,6.97
2023-03-02T08:59:07.393Z,5.63
2023-03-02T09:01:36.532Z,9.73
2023-03-02T09:04:05.590Z,6.07
2023-03-02T09:06:35.476Z,5.53
2023-03-02T09:09:03.037Z,5.75
2023-03-02T09:11:29.995Z,4.30
2023-03-02T09:13:57.083Z,4.32
2023-03-02T09:16:25.813Z,3.83
2023-03-02T09:18:53.461Z,4.35
2023-03-02T09:21:20.572Z,5.72
2023-03-02T09:23:47.571Z,6.40
2023-03-02T09:26:14.483Z,7.68
2023-03-02T09:28:41.414Z,5.05
2023-03-02T09:31:09.367Z,9.02
2023-03-02T09:33:36.650Z,12.63
2023-03-02T09:36:14.298Z,7.75
2023-03-02T09:38:41.196Z,10.15
2023-03-02T09:41:28.458Z,7.97
2023-03-02T09:44:16.903Z,7.93
2023-03-02T09:47:02.969Z,9.10
2023-03-02T09:49:49.130Z,6.05
2023-03-02T09:52:35.788Z,5.90
2023-03-02T09:55:22.326Z,8.18
2023-03-02T09:57:50.392Z,8.52
2023-03-02T10:00:27.999Z,7.38
2023-03-02T10:03:11.393Z,9.55
2023-03-02T10:05:48.571Z,4.85
2023-03-02T10:08:23.837Z,5.00
2023-03-02T10:11:05.824Z,5.57
2023-03-02T10:13:52.388Z,7.15
2023-03-02T10:16:48.458Z,9.13
2023-03-02T10:19:18.424Z,6.10
2023-03-02T10:21:56.220Z,7.05
2023-03-02T10:24:40.199Z,5.75
2023-03-02T10:29:58.843Z,7.38
2023-03-02T10:32:31.311Z,9.85
2023-03-02T10:35:01.229Z,10.75
2023-03-02T10:37:31.557Z,9.43
2023-03-02T10:39:59.080Z,9.43
2023-03-02T10:42:37.923Z,8.13
2023-03-02T10:45:25.123Z,10.10
2023-03-02T10:48:02.108Z,9.15
2023-03-02T10:50:30.665Z,12.15
2023-03-02T10:53:01.069Z,13.13
2023-03-02T10:55:28.857Z,6.63
2023-03-02T10:58:03.962Z,5.38
2023-03-02T11:00:32.576Z,6.68
2023-03-02T11:03:02.571Z,3.00
2023-03-02T11:05:38.020Z,5.32
2023-03-02T11:08:21.832Z,3.10
2023-03-02T11:11:01.473Z,3.30
2023-03-02T11:13:37.075Z,3.20
2023-03-02T11:16:22.158Z,2.70
2023-03-02T11:18:52.833Z,12.13
2023-03-02T11:21:35.793Z,2.60
2023-03-02T11:24:37.899Z,5.45
2023-03-02T11:27:22.625Z,3.92
2023-03-02T11:29:58.500Z,3.53
2023-03-02T11:32:34.176Z,3.08
2023-03-02T11:35:10.026Z,2.10
2023-03-02T11:37:49.579Z,2.22
2023-03-02T11:40:26.405Z,3.42
2023-03-02T11:42:56.716Z,3.85
2023-03-02T11:45:31.331Z,2.03
2023-03-02T11:48:22.303Z,7.28
2023-03-02T11:50:57.997Z,2.50
2023-03-02T11:53:39.465Z,3.83
2023-03-02T11:56:06.723Z,3.17
2023-03-02T11:58:34.660Z,2.03
2023-03-02T12:01:03.128Z,3.53
2023-03-02T12:03:32.970Z,2.08
2023-03-02T12:06:27.729Z,3.17
2023-03-02T12:09:07.900Z,3.67
2023-03-02T12:11:38.830Z,2.95
2023-03-02T12:14:35.276Z,5.28
2023-03-02T12:17:18.167Z,1.92
2023-03-02T12:19:46.102Z,4.75
2023-03-02T12:22:15.245Z,1.80
2023-03-02T12:24:45.118Z,9.15
2023-03-02T12:27:25.543Z,3.80
2023-03-02T12:30:23.565Z,4.05
2023-03-02T12:33:11.590Z,2.80
2023-03-02T12:35:39.213Z,4.97
2023-03-02T12:38:24.317Z,5.13
2023-03-02T12:41:05.934Z,2.88
2023-03-02T12:43:37.734Z,2.25
2023-03-02T12:46:27.860Z,3.60
2023-03-02T12:49:13.409Z,4.55
2023-03-02T12:52:01.207Z,2.70
2023-03-02T12:54:33.843Z,3.63
2023-03-02T12:57:17.576Z,3.95
2023-03-02T12:59:54.965Z,1.70
2023-03-02T13:02:28.584Z,2.67
2023-03-02T13:05:04.634Z,4.10
2023-03-02T13:07:58.603Z,3.38
2023-03-02T13:10:39.234Z,2.28
2023-03-02T13:13:27.777Z,4.93
2023-03-02T13:16:00.031Z,4.65
2023-03-02T13:18:35.523Z,2.65
2023-03-02T13:21:04.562Z,3.53
2023-03-02T13:23:32.959Z,6.68
2023-03-02T13:26:03.616Z,5.32
2023-03-02T13:28:36.341Z,10.52
2023-03-02T13:31:05.233Z,9.02
2023-03-02T13:33:35.585Z,4.55
2023-03-02T13:36:04.128Z,3.60
2023-03-02T13:38:37.643Z,5.45
2023-03-02T13:41:05.097Z,4.90
2023-03-02T13:43:40.824Z,2.58
2023-03-02T13:46:13.891Z,3.22
2023-03-02T13:48:40.807Z,8.27
2023-03-02T13:51:19.414Z,3.72
2023-03-02T13:54:02.505Z,9.57
2023-03-02T13:56:38.138Z,4.18
2023-03-02T13:59:05.600Z,3.60
2023-03-02T14:01:32.658Z,2.22
2023-03-02T14:04:01.517Z,2.42
2023-03-02T14:06:28.517Z,5.18
2023-03-02T14:08:55.490Z,5.28
2023-03-02T14:11:22.408Z,2.83
2023-03-02T14:13:55.471Z,2.30
2023-03-02T14:16:24.152Z,5.15
2023-03-02T14:18:56.238Z,11.85
2023-03-02T14:21:25.691Z,3.53
2023-03-02T14:23:54.216Z,16.30
2023-03-02T14:26:28.859Z,2.47
2023-03-02T14:29:05.002Z,3.30
2023-03-02T14:31:32.898Z,3.78
2023-03-02T14:33:59.937Z,2.15
2023-03-02T14:36:32.011Z,5.20
2023-03-02T14:39:02.743Z,7.90
2023-03-02T14:41:30.689Z,5.40
2023-03-02T14:43:58.454Z,2.95
2023-03-02T14:46:25.459Z,5.38
2023-03-02T14:48:52.562Z,4.22
2023-03-02T14:51:24.119Z,3.22
2023-03-02T14:53:53.878Z,2.90
2023-03-02T14:56:22.975Z,4.18
2023-03-02T14:58:53.441Z,4.10
2023-03-02T15:01:21.594Z,5.18
2023-03-02T15:03:48.491Z,4.63
2023-03-02T15:06:28.645Z,4.97
2023-03-02T15:08:57.671Z,5.22
2023-03-02T15:11:25.329Z,4.43
2023-03-02T15:13:52.734Z,6.30
2023-03-02T15:16:20.106Z,3.17
2023-03-02T15:18:50.015Z,2.72
2023-03-02T15:21:21.198Z,4.40
2023-03-02T15:23:48.305Z,3.88
2023-03-02T15:26:15.705Z,4.90
2023-03-02T15:28:42.979Z,4.60
2023-03-02T15:31:14.719Z,2.97
2023-03-02T15:33:45.196Z,3.22
2023-03-02T15:36:13.695Z,7.80
2023-03-02T15:38:40.986Z,3.05
2023-03-02T15:41:13.656Z,4.20
2023-03-02T15:43:40.844Z,3.28
2023-03-02T15:46:09.456Z,3.28
2023-03-02T15:48:37.814Z,3.58
2023-03-02T15:51:07.469Z,6.95
2023-03-02T15:53:38.804Z,4.03
2023-03-02T15:56:14.958Z,4.63
2023-03-02T15:58:47.085Z,3.95
2023-03-02T16:01:16.773Z,4.38
2023-03-02T16:03:45.440Z,5.57
2023-03-02T16:06:13.416Z,5.03
2023-03-02T16:08:40.474Z,2.67
2023-03-02T16:11:10.121Z,4.50
2023-03-02T16:13:37.773Z,3.22
2023-03-02T16:16:06.110Z,4.78
2023-03-02T16:18:33.167Z,2.63
2023-03-02T16:21:02.690Z,4.60
2023-03-02T16:23:29.586Z,6.90
2023-03-02T16:26:07.388Z,6.38
2023-03-02T16:28:34.645Z,7.07
2023-03-02T16:31:06.400Z,4.47
2023-03-02T16:33:33.983Z,5.10
2023-03-02T16:36:00.975Z,7.55
2023-03-02T16:38:27.934Z,5.20
2023-03-02T16:40:57.059Z,7.30
2023-03-02T16:43:24.518Z,5.57
2023-03-02T16:45:52.468Z,5.80
2023-03-02T16:48:19.464Z,5.57
2023-03-02T16:50:53.961Z,4.90
2023-03-02T16:53:20.978Z,15.45
2023-03-02T16:55:49.443Z,9.52
2023-03-02T16:58:16.773Z,11.52
2023-03-02T17:00:43.732Z,14.88
2023-03-02T17:03:10.627Z,11.82
2023-03-02T17:05:37.690Z,14.77
2023-03-02T17:08:06.364Z,10.15
2023-03-02T17:10:33.369Z,12.60
2023-03-02T17:13:00.284Z,10.63
2023-03-02T17:15:27.525Z,10.40
2023-03-02T17:17:54.637Z,15.55
2023-03-02T17:20:21.952Z,30.38
2023-03-02T17:22:48.918Z,30.25
2023-03-02T17:25:18.071Z,22.42
2023-03-02T17:27:45.720Z,20.45
2023-03-02T17:30:14.800Z,21.33
2023-03-02T17:32:42.467Z,17.73
2023-03-02T17:35:12.865Z,22.67
2023-03-02T17:37:40.364Z,42.53
2023-03-02T17:40:08.543Z,31.52
2023-03-02T17:42:35.452Z,32.78
2023-03-02T17:45:02.450Z,27.80
2023-03-02T17:47:29.449Z,21.25
2023-03-02T17:49:58.346Z,15.82
2023-03-02T17:52:25.427Z,20.15
2023-03-02T17:54:54.081Z,18.00
2023-03-02T17:57:22.671Z,18.70
2023-03-02T17:59:52.844Z,21.00
2023-03-02T18:02:19.847Z,19.52
2023-03-02T18:04:46.824Z,20.38
2023-03-02T18:07:13.739Z,22.58
2023-03-02T18:09:40.762Z,24.23
2023-03-02T18:12:08.228Z,31.63
2023-03-02T18:14:36.350Z,24.80
2023-03-02T18:17:05.010Z,21.40
2023-03-02T18:19:32.217Z,22.98
2023-03-02T18:21:59.341Z,25.02
2023-03-02T18:24:26.281Z,15.45
2023-03-02T18:26:53.270Z,19.55
2023-03-02T18:29:20.945Z,17.92
2023-03-02T18:31:48.704Z,21.60
2023-03-02T18:34:15.761Z,28.02
2023-03-02T18:36:42.722Z,20.42
2023-03-02T18:39:09.626Z,23.55
2023-03-02T18:41:36.589Z,18.00
2023-03-02T18:44:03.586Z,17.38
2023-03-02T18:46:31.887Z,19.27
2023-03-02T18:49:00.567Z,19.85
2023-03-02T18:51:28.104Z,24.30
2023-03-02T18:53:55.786Z,17.35
2023-03-02T18:56:23.253Z,22.90
2023-03-02T18:58:51.451Z,19.38
2023-03-02T19:01:19.840Z,16.80
2023-03-02T19:03:46.841Z,19.88
2023-03-02T19:06:14.404Z,23.45
2023-03-02T19:08:41.402Z,19.38
2023-03-02T19:11:08.538Z,22.50
2023-03-02T19:13:35.693Z,18.63
2023-03-02T19:16:03.074Z,20.13
2023-03-02T19:18:30.966Z,19.52
2023-03-02T19:20:57.915Z,21.25
2023-03-02T19:23:25.222Z,21.08
2023-03-02T19:25:52.550Z,21.38
2023-03-02T19:28:21.612Z,18.70
2023-03-02T19:30:49.960Z,22.05
2023-03-02T19:33:17.427Z,22.23
2023-03-02T19:35:44.686Z,22.55
2023-03-02T19:38:12.565Z,18.23
2023-03-02T19:40:39.499Z,16.83
2023-03-02T19:43:06.796Z,17.75
2023-03-02T19:45:34.907Z,21.50
2023-03-02T19:48:03.362Z,17.40
2023-03-02T19:50:30.597Z,22.75
2023-03-02T19:52:58.437Z,16.35
2023-03-02T19:55:26.649Z,21.00
2023-03-02T19:58:00.244Z,21.50
2023-03-02T20:00:29.875Z,22.67
2023-03-02T20:02:57.678Z,19.10
2023-03-02T20:05:27.491Z,18.70
2023-03-02T20:07:55.344Z,13.90
2023-03-02T20:10:36.619Z,16.55
2023-03-02T20:13:05.033Z,15.05
2023-03-02T20:15:34.040Z,19.95
2023-03-02T20:18:02.749Z,21.08
2023-03-02T20:20:30.650Z,23.15
2023-03-02T20:22:58.834Z,22.25
2023-03-02T20:25:27.140Z,18.15
2023-03-02T20:27:54.901Z,17.10
2023-03-02T20:30:32.360Z,19.52
2023-03-02T20:33:00.674Z,19.80
2023-03-02T20:35:29.913Z,21.23
2023-03-02T20:38:00.276Z,20.65
2023-03-02T20:40:28.073Z,20.25
2023-03-02T20:42:55.166Z,19.55
2023-03-02T20:45:22.400Z,16.02
2023-03-02T20:47:49.727Z,13.43
2023-03-02T20:50:20.877Z,18.63
2023-03-02T20:52:47.888Z,17.70
2023-03-02T20:55:14.847Z,14.88
2023-03-02T20:57:41.819Z,13.73
2023-03-02T21:00:14.658Z,17.15
2023-03-02T21:02:42.492Z,20.43
2023-03-02T21:05:10.152Z,14.25
2023-03-02T21:07:37.566Z,15.85
2023-03-02T21:10:08.634Z,18.63
2023-03-02T21:12:35.630Z,14.95
2023-03-02T21:15:04.305Z,15.15
2023-03-02T21:17:31.546Z,18.48
2023-03-02T21:19:58.817Z,14.93
2023-03-02T21:22:25.768Z,14.45
2023-03-02T21:24:53.096Z,23.35
2023-03-02T21:27:20.758Z,23.45
2023-03-02T21:29:48.512Z,16.70
2023-03-02T21:32:16.135Z,32.15
2023-03-02T21:34:44.915Z,14.98
2023-03-02T21:37:11.958Z,14.50
2023-03-02T21:39:38.954Z,15.60
2023-03-02T21:42:06.079Z,13.93
2023-03-02T21:44:33.010Z,13.68
2023-03-02T21:46:59.936Z,14.00
2023-03-02T21:49:27.064Z,16.73
2023-03-02T21:51:54.167Z,14.68
2023-03-02T21:54:21.067Z,13.73
2023-03-02T21:56:48.008Z,13.27
2023-03-02T21:59:14.950Z,11.32
2023-03-02T22:01:42.002Z,17.45
2023-03-02T22:04:08.988Z,14.95
2023-03-02T22:06:37.762Z,16.45
2023-03-02T22:09:04.907Z,19.00
2023-03-02T22:11:36.693Z,30.67
2023-03-02T22:14:14.276Z,20.33
2023-03-02T22:16:43.038Z,22.15
2023-03-02T22:19:26.945Z,18.77
2023-03-02T22:21:55.862Z,17.83
2023-03-02T22:24:29.273Z,12.70
2023-03-02T22:26:59.261Z,11.10
2023-03-02T22:29:33.594Z,13.65
2023-03-02T22:32:21.814Z,15.63
2023-03-02T22:35:25.409Z,14.98
2023-03-02T22:38:01.379Z,12.18
2023-03-02T22:40:34.233Z,13.18
2023-03-02T22:43:34.235Z,12.63
2023-03-02T22:46:20.181Z,13.85
2023-03-02T22:48:49.760Z,17.50
2023-03-02T22:51:25.268Z,21.08
2023-03-02T22:53:57.967Z,16.55
2023-03-02T22:56:37.524Z,14.55
2023-03-02T22:59:17.923Z,11.52
2023-03-02T23:01:45.986Z,12.57
2023-03-02T23:04:40.615Z,11.88
2023-03-02T23:07:19.693Z,9.27
2023-03-02T23:09:46.939Z,14.38
2023-03-02T23:12:23.894Z,14.18
2023-03-02T23:14:55.746Z,10.70
2023-03-02T23:17:39.797Z,11.48
2023-03-02T23:22:36.373Z,13.60
2023-03-02T23:25:03.664Z,8.57
2023-03-02T23:27:30.633Z,11.25
2023-03-02T23:29:57.707Z,15.77
2023-03-02T23:32:24.856Z,8.88
2023-03-02T23:34:52.346Z,15.82
2023-03-02T23:37:19.351Z,16.92
2023-03-02T23:39:46.370Z,15.98
2023-03-02T23:42:13.420Z,20.27
2023-03-02T23:44:40.428Z,8.20
2023-03-02T23:47:07.495Z,12.38
2023-03-02T23:49:34.437Z,15.35
2023-03-02T23:52:01.474Z,14.05
2023-03-02T23:54:28.420Z,16.05
2023-03-02T23:56:55.295Z,11.15
2023-03-02T23:59:22.246Z,10.85
